createdAt,value
2022-12-06T00:02:08.393Z,3.69
2022-12-06T00:07:16.102Z,3.62
2022-12-06T00:12:25.023Z,3.60
2022-12-06T00:17:32.901Z,3.58
2022-12-06T00:22:47.038Z,3.63
2022-12-06T00:27:55.154Z,3.69
2022-12-06T00:33:03.271Z,3.68
2022-12-06T00:38:10.557Z,3.64
2022-12-06T00:43:18.078Z,3.62
2022-12-06T00:48:26.021Z,3.63
2022-12-06T00:53:33.378Z,3.68
2022-12-06T00:58:41.121Z,3.61
2022-12-06T01:03:51.810Z,3.55
2022-12-06T01:09:29.541Z,3.51
2022-12-06T01:14:36.694Z,3.50
2022-12-06T01:19:44.932Z,3.52
2022-12-06T01:24:52.299Z,3.60
2022-12-06T01:29:59.817Z,3.67
2022-12-06T01:35:09.669Z,3.70
2022-12-06T01:40:17.656Z,3.73
2022-12-06T01:51:02.345Z,3.87
2022-12-06T01:56:11.263Z,3.87
2022-12-06T02:01:21.704Z,3.86
2022-12-06T02:06:30.175Z,3.85
2022-12-06T02:11:38.236Z,3.83
2022-12-06T02:17:03.719Z,3.80
2022-12-06T02:22:18.039Z,3.76
2022-12-06T02:27:51.000Z,3.72
2022-12-06T02:33:10.414Z,3.68
2022-12-06T02:38:35.788Z,3.63
2022-12-06T02:44:02.470Z,3.59
2022-12-06T02:51:23.401Z,3.56
2022-12-06T02:56:33.230Z,3.53
2022-12-06T03:01:52.119Z,3.51
2022-12-06T03:07:18.481Z,3.49
2022-12-06T03:12:34.820Z,3.46
2022-12-06T03:17:48.852Z,3.45
2022-12-06T03:23:00.981Z,3.44
2022-12-06T03:28:15.338Z,3.43
2022-12-06T03:33:33.711Z,3.43
2022-12-06T03:38:48.475Z,3.41
2022-12-06T03:43:56.832Z,3.38
2022-12-06T03:51:03.920Z,3.40
2022-12-06T03:56:11.619Z,3.36
2022-12-06T04:01:19.666Z,3.35
2022-12-06T04:06:27.047Z,3.36
2022-12-06T04:11:33.160Z,3.34
2022-12-06T04:17:01.212Z,3.33
2022-12-06T04:22:26.008Z,3.29
2022-12-06T04:27:51.390Z,3.27
2022-12-06T04:33:30.714Z,3.28
2022-12-06T04:38:43.629Z,3.31
2022-12-06T04:43:51.124Z,3.29
2022-12-06T04:51:01.520Z,3.25
2022-12-06T04:56:09.806Z,3.20
2022-12-06T05:01:17.121Z,3.19
2022-12-06T05:06:24.773Z,3.14
2022-12-06T05:11:32.181Z,3.10
2022-12-06T05:16:39.829Z,3.08
2022-12-06T05:21:47.485Z,3.06
2022-12-06T05:26:54.775Z,2.98
2022-12-06T05:32:01.983Z,2.96
2022-12-06T05:37:09.181Z,2.92
2022-12-06T05:42:27.214Z,2.82
2022-12-06T05:47:36.804Z,2.72
2022-12-06T05:52:44.110Z,2.70
2022-12-06T05:57:51.396Z,2.69
2022-12-06T06:02:58.488Z,2.65
2022-12-06T06:08:06.297Z,2.60
2022-12-06T06:13:13.801Z,2.63
2022-12-06T06:18:22.222Z,2.70
2022-12-06T06:23:30.255Z,2.77
2022-12-06T06:28:37.568Z,2.84
2022-12-06T06:33:44.576Z,2.89
2022-12-06T06:38:50.225Z,2.92
2022-12-06T06:43:57.329Z,2.91
2022-12-06T06:49:08.057Z,2.92
2022-12-06T06:54:20.109Z,2.94
2022-12-06T06:59:29.164Z,2.94
2022-12-06T07:04:36.457Z,2.95
2022-12-06T07:09:43.671Z,2.95
2022-12-06T07:14:51.071Z,2.92
2022-12-06T07:29:52.490Z,2.90
2022-12-06T07:34:59.406Z,2.89
2022-12-06T07:40:09.095Z,2.93
2022-12-06T07:45:17.611Z,2.97
2022-12-06T07:50:25.862Z,2.98
2022-12-06T07:55:33.316Z,2.95
2022-12-06T08:00:42.072Z,2.94
2022-12-06T08:05:57.129Z,2.99
2022-12-06T08:11:05.901Z,3.01
2022-12-06T08:16:15.539Z,2.99
2022-12-06T08:21:22.587Z,3.01
2022-12-06T08:26:29.832Z,3.04
2022-12-06T08:31:37.197Z,3.07
2022-12-06T08:36:44.932Z,3.10
2022-12-06T08:41:58.570Z,3.13
2022-12-06T08:47:08.506Z,3.15
2022-12-06T08:52:15.764Z,3.19
2022-12-06T08:57:23.075Z,3.21
2022-12-06T09:02:31.660Z,3.19
2022-12-06T09:07:49.671Z,3.16
2022-12-06T09:12:56.931Z,3.15
2022-12-06T09:18:03.832Z,3.16
2022-12-06T09:23:10.930Z,3.18
2022-12-06T09:28:18.596Z,3.18
2022-12-06T09:33:26.054Z,3.17
2022-12-06T09:38:43.267Z,3.16
2022-12-06T09:44:07.599Z,3.13
2022-12-06T09:49:30.863Z,3.03
2022-12-06T09:55:00.369Z,2.91
2022-12-06T10:00:15.410Z,2.88
2022-12-06T10:05:39.156Z,2.87
2022-12-06T10:11:05.355Z,2.88
2022-12-06T10:16:28.488Z,2.89
2022-12-06T10:22:01.433Z,2.89
2022-12-06T10:27:12.482Z,2.91
2022-12-06T10:32:28.239Z,2.96
2022-12-06T10:37:50.051Z,3.05
2022-12-06T10:43:02.711Z,3.11
2022-12-06T10:51:08.984Z,3.15
2022-12-06T10:56:21.367Z,3.14
2022-12-06T11:01:33.984Z,3.13
2022-12-06T11:06:51.468Z,3.10
2022-12-06T11:12:01.486Z,3.13
2022-12-06T11:17:16.372Z,3.17
2022-12-06T11:22:37.595Z,3.19
2022-12-06T11:27:53.906Z,3.18
2022-12-06T11:33:03.924Z,3.18
2022-12-06T11:38:13.748Z,3.18
2022-12-06T11:43:25.444Z,3.24
2022-12-06T11:52:29.290Z,3.41
2022-12-06T11:57:38.338Z,3.46
2022-12-06T12:02:44.116Z,3.47
2022-12-06T12:07:52.338Z,3.47
2022-12-06T12:13:15.410Z,3.46
2022-12-06T12:18:26.089Z,3.48
2022-12-06T12:23:33.086Z,3.49
2022-12-06T12:28:38.320Z,3.51
2022-12-06T12:33:42.099Z,3.52
2022-12-06T12:38:55.490Z,3.52
2022-12-06T12:44:35.841Z,3.53
2022-12-06T12:49:32.938Z,3.52
2022-12-06T12:54:38.007Z,3.52
2022-12-06T12:59:45.086Z,3.52
2022-12-06T13:05:05.095Z,3.52
2022-12-06T13:10:18.125Z,3.51
2022-12-06T13:15:30.170Z,3.49
2022-12-06T13:20:36.651Z,3.52
2022-12-06T13:25:43.085Z,3.53
2022-12-06T13:30:51.577Z,3.54
2022-12-06T13:36:02.719Z,3.51
2022-12-06T13:41:11.548Z,3.45
2022-12-06T13:46:31.153Z,3.34
2022-12-06T13:51:48.520Z,3.25
2022-12-06T13:56:58.664Z,3.18
2022-12-06T14:02:22.933Z,3.13
2022-12-06T14:07:33.522Z,3.06
2022-12-06T14:12:37.768Z,3.00
2022-12-06T14:23:24.176Z,2.92
2022-12-06T14:28:34.678Z,2.89
2022-12-06T14:33:40.041Z,2.89
2022-12-06T14:38:50.445Z,2.89
2022-12-06T14:43:54.998Z,2.89
2022-12-06T14:49:17.340Z,2.84
2022-12-06T14:54:33.776Z,2.80
2022-12-06T15:00:25.864Z,2.79
2022-12-06T15:05:01.669Z,2.77
2022-12-06T15:10:29.833Z,2.73
2022-12-06T15:15:37.197Z,2.70
2022-12-06T15:20:41.051Z,2.70
2022-12-06T15:25:44.715Z,2.69
2022-12-06T15:30:48.731Z,2.68
2022-12-06T15:35:53.430Z,2.66
2022-12-06T15:40:57.856Z,2.63
2022-12-06T15:46:04.177Z,2.59
2022-12-06T15:51:16.146Z,2.56
2022-12-06T15:56:25.221Z,2.57
2022-12-06T16:01:33.441Z,2.56
2022-12-06T16:06:37.464Z,2.55
2022-12-06T16:11:41.466Z,2.54
2022-12-06T16:16:45.362Z,2.54
2022-12-06T16:21:53.970Z,2.58
2022-12-06T16:26:57.505Z,2.59
2022-12-06T16:32:01.123Z,2.60
2022-12-06T16:37:06.280Z,2.62
2022-12-06T16:42:09.901Z,2.61
2022-12-06T16:50:55.452Z,2.58
2022-12-06T16:56:00.903Z,2.52
2022-12-06T17:01:22.529Z,2.45
2022-12-06T17:06:32.536Z,2.36
2022-12-06T17:11:57.850Z,2.31
2022-12-06T17:17:05.442Z,2.30
2022-12-06T17:22:16.462Z,2.30
2022-12-06T17:27:23.939Z,2.32
2022-12-06T17:32:31.765Z,2.32
2022-12-06T17:37:39.187Z,2.33
2022-12-06T17:43:01.832Z,2.34
2022-12-06T17:48:09.702Z,2.33
2022-12-06T17:53:17.150Z,2.32
2022-12-06T17:58:22.821Z,2.33
2022-12-06T18:03:30.392Z,2.34
2022-12-06T18:08:37.879Z,2.32
2022-12-06T18:13:45.664Z,2.30
2022-12-06T18:18:55.186Z,2.30
2022-12-06T18:24:20.832Z,2.32
2022-12-06T18:29:29.497Z,2.31
2022-12-06T18:34:35.554Z,2.30
2022-12-06T18:39:43.659Z,2.29
2022-12-06T18:44:56.547Z,2.30
2022-12-06T18:50:10.115Z,2.31
2022-12-06T18:55:17.855Z,2.30
2022-12-06T19:00:24.865Z,2.28
2022-12-06T19:06:00.689Z,2.26
2022-12-06T19:11:04.005Z,2.24
2022-12-06T19:16:12.325Z,2.20
2022-12-06T19:21:20.180Z,2.18
2022-12-06T19:26:28.789Z,2.18
2022-12-06T19:31:36.395Z,2.16
2022-12-06T19:36:43.697Z,2.09
2022-12-06T19:42:08.736Z,2.06
2022-12-06T19:47:15.930Z,2.02
2022-12-06T19:52:23.365Z,1.97
2022-12-06T19:57:34.323Z,1.93
2022-12-06T20:02:42.272Z,1.90
2022-12-06T20:07:50.184Z,1.90
2022-12-06T20:12:57.853Z,1.92
2022-12-06T20:18:05.883Z,1.90
2022-12-06T20:23:13.392Z,1.87
2022-12-06T20:28:21.501Z,1.86
2022-12-06T20:33:28.706Z,1.82
2022-12-06T20:38:37.931Z,1.77
2022-12-06T20:43:46.707Z,1.75
2022-12-06T20:48:54.582Z,1.74
2022-12-06T20:54:03.981Z,1.73
2022-12-06T20:59:12.097Z,1.71
2022-12-06T21:04:19.383Z,1.68
2022-12-06T21:09:27.192Z,1.67
2022-12-06T21:14:34.634Z,1.63
2022-12-06T21:19:43.035Z,1.63
2022-12-06T21:24:50.541Z,1.62
2022-12-06T21:29:58.017Z,1.62
2022-12-06T21:35:06.227Z,1.62
2022-12-06T21:40:15.357Z,1.61
2022-12-06T21:45:22.752Z,1.61
2022-12-06T21:50:30.177Z,1.59
2022-12-06T21:55:38.855Z,1.58
2022-12-06T22:00:46.514Z,1.56
2022-12-06T22:05:54.067Z,1.56
2022-12-06T22:10:59.629Z,1.53
2022-12-06T22:16:08.739Z,1.49
2022-12-06T22:21:17.923Z,1.46
2022-12-06T22:26:26.250Z,1.43
2022-12-06T22:31:35.342Z,1.40
2022-12-06T22:36:42.489Z,1.38
2022-12-06T22:41:49.865Z,1.40
2022-12-06T22:46:57.478Z,1.41
2022-12-06T22:52:05.221Z,1.39
2022-12-06T22:57:12.991Z,1.38
2022-12-06T23:02:20.628Z,1.39
2022-12-06T23:07:27.863Z,1.39
2022-12-06T23:12:33.450Z,1.39
2022-12-06T23:17:40.794Z,1.38
2022-12-06T23:22:48.006Z,1.38
2022-12-06T23:27:54.517Z,1.40
2022-12-06T23:33:02.195Z,1.40
2022-12-06T23:38:09.610Z,1.39
2022-12-06T23:43:18.435Z,1.38
2022-12-06T23:48:26.219Z,1.39
2022-12-06T23:53:35.334Z,1.40
2022-12-06T23:58:43.722Z,1.41
